Everton, United Kingdom
Current Conditions -  °F | °C
As of 4:50 PM on Saturday 25 Oct 2014 (Local Time) from EGCN Reporting Station
Few Clouds Few Clouds  
Wind Chill: 55°   Ceiling: Unl
Heat Index: 55°   Visibility: 6mi
Dew Point: 50°   Wind: 21mph
Humidity: 82%   Direction: 220°SW
Pressure: 29.97"   Gusts: NA
Location:  53.4°N, 0.9°W
Report Text: EGCN 251550Z 22018KT 9999 FEW027 13/10 Q1015
Loading
Personal Weather Stations






























Interactive Weather Map New forecast layout! Learn more

10-Day Weather Forecast

Advertisements
Track Severe Weather on mobile